Clarkedale, Arkansas
Current Conditions -  °F | °C
As of 6:53 PM on Sunday 23 Nov 2014 (Local Time) from KAWM Reporting Station
Broken Clouds Broken Clouds  
Wind Chill: 59°   Ceiling: 2200
Heat Index: 59°   Visibility: 10mi
Dew Point: 59°   Wind: 9mph
Humidity: 100%   Direction: 200°SSW
Pressure: 29.43"   Gusts: NA
Location:  35.31°N, 90.24°W
Report Text: KAWM 240053Z AUTO 20008KT 10SM SCT008 BKN022 15/15 A2943 RMK AO2 PRESRR SLP962 T01500150
Loading
Personal Weather Stations






























Interactive Weather Map New forecast layout! Learn more

10-Day Weather Forecast

Advertisements
Track Severe Weather on mobile